Eko 2 — SY9957 — position and weather

sailwx.info

Track history (hours):
 
Tides and Currents Weather Stations Pressure Air Temp Water Temp Dewpoint Dewpoint Depression Visibility Wind Speed Wind Dir Waves Ship Positions

Eko 2

Last reported at 2015-Jul-31 14:32 UTC. Time now 2015-Jul-31 15:25 UTC.
Position N 37°27' E 025°19'.

Length 89 m; draft 4.5 m.

Type: Ship (hazmat cat A). MMSI: 240827000.

Date/timePositionNaut miles runAvg speedWind from/ knotsBaromVisibWave heightAir tempDewpointWater temp
2015-Jul-31 14:32N 37°27' E 025°19'0 0.0
2015-Jul-31 13:32N 37°27' E 025°19'4 4.1
2015-Jul-31 12:33N 37°29' E 025°14'5 5.3
2015-Jul-31 11:33N 37°32' E 025°09'0 0.0
2015-Jul-31 10:33N 37°32' E 025°09'0 0.0
2015-Jul-31 09:33N 37°32' E 025°09'0 0.0
2015-Jul-31 08:33N 37°32' E 025°09'3 2.6
2015-Jul-31 07:31N 37°30' E 025°12'7 6.8
2015-Jul-31 06:32N 37°28' E 025°20'0 0.0
2015-Jul-31 05:28N 37°28' E 025°20'0 0.0
2015-Jul-31 04:31N 37°28' E 025°20'0 0.0
2015-Jul-31 03:31N 37°28' E 025°20'0 0.0
2015-Jul-31 02:33N 37°28' E 025°19'7 7.3
2015-Jul-31 01:33N 37°29' E 025°10'5310.3
2015-Jul-30 20:21N 37°34' E 024°03'911.0
2015-Jul-30 19:33N 37°37' E 023°53'10 9.8
2015-Jul-30 18:33N 37°41' E 023°42'1010.2
2015-Jul-30 17:33N 37°50' E 023°37'9 8.9
2015-Jul-30 16:33N 37°59' E 023°33'3 2.7
2015-Jul-30 15:28N 38°02' E 023°32'0 0.0
2015-Jul-30 14:19N 38°02' E 023°32'0 0.0
2015-Jul-30 13:34N 38°02' E 023°32'3 0.3
2015-Jul-30 04:25N 38°02' E 023°36'0 0.0
2015-Jul-30 03:22N 38°02' E 023°36'0 0.0
2015-Jul-30 02:28N 38°02' E 023°36'3 2.8
2015-Jul-30 01:33N 38°01' E 023°33'1 1.0
2015-Jul-30 00:32N 38°02' E 023°32'0 0.0
2015-Jul-29 23:32N 38°02' E 023°32'0 0.0
2015-Jul-29 22:32N 38°02' E 023°32'0 0.0
2015-Jul-29 21:32N 38°02' E 023°32'0 0.0
2015-Jul-29 20:32N 38°02' E 023°32'0 0.0
2015-Jul-29 19:32N 38°02' E 023°32'0 0.0
2015-Jul-29 18:32N 38°02' E 023°32'0 0.0
2015-Jul-29 17:32N 38°02' E 023°32'0 0.0
2015-Jul-29 16:32N 38°02' E 023°32'0 0.0
2015-Jul-29 15:32N 38°02' E 023°32'0 0.0
2015-Jul-29 14:32N 38°02' E 023°32'0 0.0
2015-Jul-29 13:32N 38°02' E 023°32'0 0.0
2015-Jul-29 12:32N 38°02' E 023°32'0 0.0
2015-Jul-29 11:29N 38°02' E 023°32'0 0.0
2015-Jul-29 10:32N 38°02' E 023°32'0 0.0
2015-Jul-29 09:32N 38°02' E 023°32'0 0.0
2015-Jul-29 08:32N 38°02' E 023°32'0 0.0
2015-Jul-29 07:32N 38°02' E 023°32'0 0.0
2015-Jul-29 06:32N 38°02' E 023°32'4 4.4
2015-Jul-29 05:34N 37°58' E 023°33'4 3.8
2015-Jul-29 04:33N 37°55' E 023°36'7 6.9
2015-Jul-29 03:33N 37°49' E 023°40'10 9.8
2015-Jul-29 02:33N 37°40' E 023°46'1010.1
2015-Jul-29 01:33N 37°33' E 023°55'10 9.8
2015-Jul-29 00:33N 37°25' E 024°03'1110.2
2015-Jul-28 23:28N 37°17' E 024°12'1210.6
2015-Jul-28 22:20N 37°08' E 024°22'26 1.5
2015-Jul-28 05:33N 36°43' E 024°27'9 6.5
2015-Jul-28 04:12N 36°41' E 024°17'36 9.8
2015-Jul-28 00:33N 36°27' E 024°58'1110.7
2015-Jul-27 23:32N 36°24' E 025°11'1010.3
2015-Jul-27 22:33N 36°23' E 025°24'2 1.7
2015-Jul-27 21:29N 36°23' E 025°26'0 0.0
2015-Jul-27 20:29N 36°23' E 025°26'0 0.0
2015-Jul-27 19:29N 36°23' E 025°26'0 0.0
2015-Jul-27 17:29N 36°23' E 025°26'0 0.0
2015-Jul-27 16:29N 36°23' E 025°26'0 0.0
2015-Jul-27 15:29N 36°23' E 025°26'0 0.0
2015-Jul-27 14:29N 36°23' E 025°26'0 0.0
2015-Jul-27 13:29N 36°23' E 025°26'0 0.0
2015-Jul-27 12:30N 36°23' E 025°26'0 0.0
2015-Jul-27 11:29N 36°23' E 025°26'0 0.0
2015-Jul-27 10:29N 36°23' E 025°26'0 0.0
2015-Jul-27 09:29N 36°23' E 025°26'0 0.0
2015-Jul-27 07:29N 36°23' E 025°26'0 0.0
2015-Jul-27 06:24N 36°23' E 025°26'0 0.0
2015-Jul-27 05:30N 36°23' E 025°26'0 0.0
2015-Jul-27 04:23N 36°23' E 025°26'0 0.0
2015-Jul-27 02:29N 36°23' E 025°26'0 0.0
2015-Jul-27 01:17N 36°23' E 025°26'0 0.0
2015-Jul-27 00:29N 36°23' E 025°26'0 0.0
2015-Jul-26 23:32N 36°23' E 025°26'0 0.0
2015-Jul-26 22:32N 36°23' E 025°26'0 0.0
2015-Jul-26 21:32N 36°23' E 025°26'0 0.5
2015-Jul-26 20:33N 36°23' E 025°25'1 1.3
2015-Jul-26 19:30N 36°25' E 025°25'6 6.7
2015-Jul-26 18:33N 36°24' E 025°17'1110.5
2015-Jul-26 17:32N 36°31' E 025°07'1010.3
2015-Jul-26 16:33N 36°38' E 024°58'1010.4
2015-Jul-26 15:33N 36°46' E 024°49'27 1.1
2015-Jul-25 14:30N 37°13' E 024°49'1010.9
2015-Jul-25 13:33N 37°21' E 024°58'1111.1
2015-Jul-25 12:33N 37°29' E 025°07'4 3.7
2015-Jul-25 11:32N 37°32' E 025°09'0 0.0
2015-Jul-25 10:29N 37°32' E 025°09'0 0.0
2015-Jul-25 09:32N 37°32' E 025°09'0 0.0
2015-Jul-25 08:32N 37°32' E 025°09'0 0.0
2015-Jul-25 07:32N 37°32' E 025°09'1 1.3
2015-Jul-25 06:33N 37°31' E 025°10'8 8.2
2015-Jul-25 05:32N 37°28' E 025°20'0 0.0
2015-Jul-25 04:32N 37°28' E 025°20'0 0.0
2015-Jul-25 03:17N 37°28' E 025°20'0 0.0
2015-Jul-25 02:32N 37°28' E 025°20'0 0.0
2015-Jul-25 01:32N 37°28' E 025°20'0 0.0
2015-Jul-25 00:32N 37°28' E 025°20'0 0.0
2015-Jul-24 23:32N 37°28' E 025°20'0 0.0
2015-Jul-24 22:29N 37°28' E 025°20'0 0.0
2015-Jul-24 21:32N 37°28' E 025°20'1 0.7
2015-Jul-24 20:33N 37°27' E 025°19'5 5.0
2015-Jul-24 19:33N 37°22' E 025°19'9 9.1
2015-Jul-24 18:33N 37°20' E 025°30'9 9.2
2015-Jul-24 17:33N 37°18' E 025°41'19 9.5
2015-Jul-24 15:32N 37°14' E 026°05'42 1.5
2015-Jul-23 12:31N 36°56' E 026°51'9 9.5
2015-Jul-23 11:33N 36°47' E 026°53'53 4.7
2015-Jul-23 00:23N 35°58' E 027°16'9 9.1
2015-Jul-22 23:25N 35°49' E 027°16'  
Track history (hours):
 
Tides and Currents Weather Stations Pressure Air Temp Water Temp Dewpoint Dewpoint Depression Visibility Wind Speed Wind Dir Waves Ship Positions

Eko 2

Last reported at 2015-Jul-31 14:32 UTC. Time now 2015-Jul-31 15:25 UTC.
Position N 37°27' E 025°19'.

Length 89 m; draft 4.5 m.

Type: Ship (hazmat cat A). MMSI: 240827000.

Date/timePositionNaut miles runAvg speedWind from/ knotsBaromVisibWave heightAir tempDewpointWater temp
2015-Jul-31 14:32N 37°27' E 025°19'0 0.0
2015-Jul-31 13:32N 37°27' E 025°19'4 4.1
2015-Jul-31 12:33N 37°29' E 025°14'5 5.3
2015-Jul-31 11:33N 37°32' E 025°09'0 0.0
2015-Jul-31 10:33N 37°32' E 025°09'0 0.0
2015-Jul-31 09:33N 37°32' E 025°09'0 0.0
2015-Jul-31 08:33N 37°32' E 025°09'3 2.6
2015-Jul-31 07:31N 37°30' E 025°12'7 6.8
2015-Jul-31 06:32N 37°28' E 025°20'0 0.0
2015-Jul-31 05:28N 37°28' E 025°20'0 0.0
2015-Jul-31 04:31N 37°28' E 025°20'0 0.0
2015-Jul-31 03:31N 37°28' E 025°20'0 0.0
2015-Jul-31 02:33N 37°28' E 025°19'7 7.3
2015-Jul-31 01:33N 37°29' E 025°10'5310.3
2015-Jul-30 20:21N 37°34' E 024°03'911.0
2015-Jul-30 19:33N 37°37' E 023°53'10 9.8
2015-Jul-30 18:33N 37°41' E 023°42'1010.2
2015-Jul-30 17:33N 37°50' E 023°37'9 8.9
2015-Jul-30 16:33N 37°59' E 023°33'3 2.7
2015-Jul-30 15:28N 38°02' E 023°32'0 0.0
2015-Jul-30 14:19N 38°02' E 023°32'0 0.0
2015-Jul-30 13:34N 38°02' E 023°32'3 0.3
2015-Jul-30 04:25N 38°02' E 023°36'0 0.0
2015-Jul-30 03:22N 38°02' E 023°36'0 0.0
2015-Jul-30 02:28N 38°02' E 023°36'3 2.8
2015-Jul-30 01:33N 38°01' E 023°33'1 1.0
2015-Jul-30 00:32N 38°02' E 023°32'0 0.0
2015-Jul-29 23:32N 38°02' E 023°32'0 0.0
2015-Jul-29 22:32N 38°02' E 023°32'0 0.0
2015-Jul-29 21:32N 38°02' E 023°32'0 0.0
2015-Jul-29 20:32N 38°02' E 023°32'0 0.0
2015-Jul-29 19:32N 38°02' E 023°32'0 0.0
2015-Jul-29 18:32N 38°02' E 023°32'0 0.0
2015-Jul-29 17:32N 38°02' E 023°32'0 0.0
2015-Jul-29 16:32N 38°02' E 023°32'0 0.0
2015-Jul-29 15:32N 38°02' E 023°32'0 0.0
2015-Jul-29 14:32N 38°02' E 023°32'0 0.0
2015-Jul-29 13:32N 38°02' E 023°32'0 0.0
2015-Jul-29 12:32N 38°02' E 023°32'0 0.0
2015-Jul-29 11:29N 38°02' E 023°32'0 0.0
2015-Jul-29 10:32N 38°02' E 023°32'0 0.0
2015-Jul-29 09:32N 38°02' E 023°32'0 0.0
2015-Jul-29 08:32N 38°02' E 023°32'0 0.0
2015-Jul-29 07:32N 38°02' E 023°32'0 0.0
2015-Jul-29 06:32N 38°02' E 023°32'4 4.4
2015-Jul-29 05:34N 37°58' E 023°33'4 3.8
2015-Jul-29 04:33N 37°55' E 023°36'7 6.9
2015-Jul-29 03:33N 37°49' E 023°40'10 9.8
2015-Jul-29 02:33N 37°40' E 023°46'1010.1
2015-Jul-29 01:33N 37°33' E 023°55'10 9.8
2015-Jul-29 00:33N 37°25' E 024°03'1110.2
2015-Jul-28 23:28N 37°17' E 024°12'1210.6
2015-Jul-28 22:20N 37°08' E 024°22'26 1.5
2015-Jul-28 05:33N 36°43' E 024°27'9 6.5
2015-Jul-28 04:12N 36°41' E 024°17'36 9.8
2015-Jul-28 00:33N 36°27' E 024°58'1110.7
2015-Jul-27 23:32N 36°24' E 025°11'1010.3
2015-Jul-27 22:33N 36°23' E 025°24'2 1.7
2015-Jul-27 21:29N 36°23' E 025°26'0 0.0
2015-Jul-27 20:29N 36°23' E 025°26'0 0.0
2015-Jul-27 19:29N 36°23' E 025°26'0 0.0
2015-Jul-27 17:29N 36°23' E 025°26'0 0.0
2015-Jul-27 16:29N 36°23' E 025°26'0 0.0
2015-Jul-27 15:29N 36°23' E 025°26'0 0.0
2015-Jul-27 14:29N 36°23' E 025°26'0 0.0
2015-Jul-27 13:29N 36°23' E 025°26'0 0.0
2015-Jul-27 12:30N 36°23' E 025°26'0 0.0
2015-Jul-27 11:29N 36°23' E 025°26'0 0.0
2015-Jul-27 10:29N 36°23' E 025°26'0 0.0
2015-Jul-27 09:29N 36°23' E 025°26'0 0.0
2015-Jul-27 07:29N 36°23' E 025°26'0 0.0
2015-Jul-27 06:24N 36°23' E 025°26'0 0.0
2015-Jul-27 05:30N 36°23' E 025°26'0 0.0
2015-Jul-27 04:23N 36°23' E 025°26'0 0.0
2015-Jul-27 02:29N 36°23' E 025°26'0 0.0
2015-Jul-27 01:17N 36°23' E 025°26'0 0.0
2015-Jul-27 00:29N 36°23' E 025°26'0 0.0
2015-Jul-26 23:32N 36°23' E 025°26'0 0.0
2015-Jul-26 22:32N 36°23' E 025°26'0 0.0
2015-Jul-26 21:32N 36°23' E 025°26'0 0.5
2015-Jul-26 20:33N 36°23' E 025°25'1 1.3
2015-Jul-26 19:30N 36°25' E 025°25'6 6.7
2015-Jul-26 18:33N 36°24' E 025°17'1110.5
2015-Jul-26 17:32N 36°31' E 025°07'1010.3
2015-Jul-26 16:33N 36°38' E 024°58'1010.4
2015-Jul-26 15:33N 36°46' E 024°49'27 1.1
2015-Jul-25 14:30N 37°13' E 024°49'1010.9
2015-Jul-25 13:33N 37°21' E 024°58'1111.1
2015-Jul-25 12:33N 37°29' E 025°07'4 3.7
2015-Jul-25 11:32N 37°32' E 025°09'0 0.0
2015-Jul-25 10:29N 37°32' E 025°09'0 0.0
2015-Jul-25 09:32N 37°32' E 025°09'0 0.0
2015-Jul-25 08:32N 37°32' E 025°09'0 0.0
2015-Jul-25 07:32N 37°32' E 025°09'1 1.3
2015-Jul-25 06:33N 37°31' E 025°10'8 8.2
2015-Jul-25 05:32N 37°28' E 025°20'0 0.0
2015-Jul-25 04:32N 37°28' E 025°20'0 0.0
2015-Jul-25 03:17N 37°28' E 025°20'0 0.0
2015-Jul-25 02:32N 37°28' E 025°20'0 0.0
2015-Jul-25 01:32N 37°28' E 025°20'0 0.0
2015-Jul-25 00:32N 37°28' E 025°20'0 0.0
2015-Jul-24 23:32N 37°28' E 025°20'0 0.0
2015-Jul-24 22:29N 37°28' E 025°20'0 0.0
2015-Jul-24 21:32N 37°28' E 025°20'1 0.7
2015-Jul-24 20:33N 37°27' E 025°19'5 5.0
2015-Jul-24 19:33N 37°22' E 025°19'9 9.1
2015-Jul-24 18:33N 37°20' E 025°30'9 9.2
2015-Jul-24 17:33N 37°18' E 025°41'19 9.5
2015-Jul-24 15:32N 37°14' E 026°05'42 1.5
2015-Jul-23 12:31N 36°56' E 026°51'9 9.5
2015-Jul-23 11:33N 36°47' E 026°53'53 4.7
2015-Jul-23 00:23N 35°58' E 027°16'9 9.1
2015-Jul-22 23:25N 35°49' E 027°16'  

Dump ship's entire track history